Time;durP1;ratioP1;P1;durP2;ratioP2;P2;SDS_P1;SDS_P2;PMS_P1;PMS_P2;Temp;Humidity;BMP_temperature;BMP_pressure;BME280_temperature;BME280_humidity;BME280_pressure;Samples;Min_cycle;Max_cycle;Signal;HPM_P1;HPM_P2
2024/02/22 00:00:40;;;;;;;46.25;42.80;;;;;;;;;;4180053;28;20044;-84
2024/02/22 00:02:42;;;;;;;45.60;42.60;;;;;;;;;;4175363;28;20063;-84
2024/02/22 00:04:43;;;;;;;49.93;45.90;;;;;;;;;;4163240;28;20059;-84
2024/02/22 00:06:46;;;;;;;55.65;50.97;;;;;;;;;;4179737;28;20563;-84
2024/02/22 00:08:47;;;;;;;55.80;51.00;;;;;;;;;;4179789;28;20068;-84
2024/02/22 00:10:50;;;;;;;56.75;51.63;;;;;;;;;;4179545;28;20063;-84
2024/02/22 00:12:52;;;;;;;47.70;44.10;;;;;;;;;;4179774;28;20048;-84
2024/02/22 00:14:53;;;;;;;55.13;50.65;;;;;;;;;;4197538;28;20066;-82
2024/02/22 00:16:55;;;;;;;49.80;45.85;;;;;;;;;;4195327;28;20128;-81
2024/02/22 00:18:57;;;;;;;48.70;45.17;;;;;;;;;;4179781;28;20504;-81
2024/02/22 00:20:58;;;;;;;50.20;46.40;;;;;;;;;;4196305;28;20094;-81
2024/02/22 00:23:02;;;;;;;50.28;46.10;;;;;;;;;;4192781;28;20068;-81
2024/02/22 00:25:04;;;;;;;52.15;48.22;;;;;;;;;;4179557;28;20048;-81
2024/02/22 00:27:06;;;;;;;47.00;43.28;;;;;;;;;;4179597;28;20052;-81
2024/02/22 00:29:07;;;;;;;48.65;45.03;;;;;;;;;;4179436;28;20493;-82
2024/02/22 00:31:09;;;;;;;43.90;40.90;;;;;;;;;;4188111;28;20040;-81
2024/02/22 00:33:11;;;;;;;46.33;43.53;;;;;;;;;;4197320;28;20040;-81
2024/02/22 00:35:13;;;;;;;46.70;43.67;;;;;;;;;;4197429;28;20036;-81
2024/02/22 00:37:15;;;;;;;47.38;44.03;;;;;;;;;;4197236;28;20044;-81
2024/02/22 00:39:16;;;;;;;51.35;47.60;;;;;;;;;;4162824;28;20049;-81
2024/02/22 00:41:18;;;;;;;52.10;48.60;;;;;;;;;;4197548;28;20045;-81
2024/02/22 00:43:23;;;;;;;48.42;44.75;;;;;;;;;;4197330;28;20040;-81
2024/02/22 00:45:24;;;;;;;50.03;46.40;;;;;;;;;;4196753;28;20045;-81
2024/02/22 00:47:26;;;;;;;48.10;45.00;;;;;;;;;;4162805;28;20052;-81
2024/02/22 00:49:28;;;;;;;45.00;42.20;;;;;;;;;;4179682;28;20041;-81
2024/02/22 00:51:30;;;;;;;47.50;44.20;;;;;;;;;;4197142;28;20045;-81
2024/02/22 00:53:31;;;;;;;47.08;43.63;;;;;;;;;;4179331;28;20512;-81
2024/02/22 00:55:33;;;;;;;45.87;43.00;;;;;;;;;;4179315;28;20037;-81
2024/02/22 00:57:35;;;;;;;40.88;38.30;;;;;;;;;;4179387;28;20179;-81
2024/02/22 00:59:36;;;;;;;46.75;43.60;;;;;;;;;;4195642;28;20488;-82
2024/02/22 01:01:38;;;;;;;45.87;42.40;;;;;;;;;;4179085;28;20049;-81
2024/02/22 01:03:40;;;;;;;45.45;42.50;;;;;;;;;;4179123;28;20084;-82
2024/02/22 01:05:41;;;;;;;44.37;41.53;;;;;;;;;;4179225;28;20045;-81
2024/02/22 01:07:43;;;;;;;47.13;43.83;;;;;;;;;;4196965;28;20094;-81
2024/02/22 01:09:45;;;;;;;46.63;42.70;;;;;;;;;;4162537;28;20300;-81
2024/02/22 01:11:47;;;;;;;47.83;44.20;;;;;;;;;;4179161;28;20694;-81
2024/02/22 01:13:49;;;;;;;46.65;43.13;;;;;;;;;;4196973;28;20037;-81
2024/02/22 01:15:51;;;;;;;46.23;43.03;;;;;;;;;;4196868;28;20070;-81
2024/02/22 01:17:52;;;;;;;43.58;40.22;;;;;;;;;;4179170;28;20337;-81
2024/02/22 01:19:54;;;;;;;45.08;42.03;;;;;;;;;;4189177;28;20048;-81
2024/02/22 01:21:57;;;;;;;45.50;41.78;;;;;;;;;;4195529;28;20044;-81
2024/02/22 01:23:58;;;;;;;47.10;44.20;;;;;;;;;;4213521;28;20044;-81
2024/02/22 01:26:00;;;;;;;42.25;39.78;;;;;;;;;;4213711;28;20094;-84
2024/02/22 01:28:06;;;;;;;37.40;35.42;;;;;;;;;;4166443;28;20140;-84
2024/02/22 01:30:09;;;;;;;41.58;39.28;;;;;;;;;;4179170;28;20052;-83
2024/02/22 01:32:10;;;;;;;42.78;40.58;;;;;;;;;;4178965;28;20045;-84
2024/02/22 01:34:12;;;;;;;40.92;38.88;;;;;;;;;;4195727;28;20043;-83
2024/02/22 01:36:14;;;;;;;40.67;38.67;;;;;;;;;;4162459;28;20084;-83
2024/02/22 01:38:16;;;;;;;39.60;37.25;;;;;;;;;;4196742;28;20037;-83
2024/02/22 01:40:17;;;;;;;40.20;38.10;;;;;;;;;;4196685;28;20045;-84
2024/02/22 01:42:19;;;;;;;41.65;39.35;;;;;;;;;;4179106;28;20045;-83
2024/02/22 01:44:25;;;;;;;43.27;41.03;;;;;;;;;;4179028;28;20072;-83
2024/02/22 01:46:27;;;;;;;47.65;44.17;;;;;;;;;;4179083;28;20045;-87
2024/02/22 01:48:29;;;;;;;47.50;43.60;;;;;;;;;;4178801;28;20045;-87
2024/02/22 01:50:31;;;;;;;49.50;45.70;;;;;;;;;;4178961;28;20081;-87
2024/02/22 01:52:33;;;;;;;45.53;42.53;;;;;;;;;;4196924;28;20090;-87
2024/02/22 01:54:35;;;;;;;44.88;41.90;;;;;;;;;;4197891;28;20405;-87
2024/02/22 01:56:37;;;;;;;45.43;42.17;;;;;;;;;;4199886;28;20036;-87
2024/02/22 01:58:39;;;;;;;46.95;43.88;;;;;;;;;;4180630;28;20396;-86
2024/02/22 02:00:41;;;;;;;43.63;41.13;;;;;;;;;;4181930;28;20068;-81
2024/02/22 02:02:44;;;;;;;40.23;37.67;;;;;;;;;;4243384;22;20057;-51
2024/02/22 02:04:46;;;;;;;44.67;41.85;;;;;;;;;;4195673;28;20043;-52
2024/02/22 02:06:48;;;;;;;45.83;42.90;;;;;;;;;;4196836;28;20040;-50
2024/02/22 02:08:49;;;;;;;45.13;42.13;;;;;;;;;;4215171;28;20047;-50
2024/02/22 02:10:51;;;;;;;45.33;42.55;;;;;;;;;;4215389;28;20436;-50
2024/02/22 02:13:00;;;;;;;45.53;42.53;;;;;;;;;;4215455;28;20043;-54
2024/02/22 02:15:03;;;;;;;44.55;41.85;;;;;;;;;;4214168;28;20040;-50
2024/02/22 02:17:05;;;;;;;44.13;40.95;;;;;;;;;;4198376;28;20123;-54
2024/02/22 02:19:08;;;;;;;46.53;43.53;;;;;;;;;;4198930;28;20454;-52
2024/02/22 02:21:10;;;;;;;45.58;42.88;;;;;;;;;;4199044;28;20326;-49
2024/02/22 02:23:14;;;;;;;47.20;43.90;;;;;;;;;;4199578;28;20055;-53
2024/02/22 02:25:17;;;;;;;44.35;41.72;;;;;;;;;;4199623;28;20520;-51
2024/02/22 02:27:22;;;;;;;43.90;40.88;;;;;;;;;;4200293;28;20044;-53
2024/02/22 02:29:24;;;;;;;;;;;;;;;;;;4201955;28;20086;-52
2024/02/22 02:31:27;;;;;;;42.95;40.47;;;;;;;;;;4199373;28;19926;-52
2024/02/22 02:33:29;;;;;;;43.33;40.60;;;;;;;;;;4199556;28;20068;-50
2024/02/22 02:35:37;;;;;;;47.40;43.83;;;;;;;;;;4181364;28;20070;-51
2024/02/22 02:37:39;;;;;;;41.45;38.75;;;;;;;;;;4189295;28;20053;-53
2024/02/22 02:39:40;;;;;;;44.17;41.40;;;;;;;;;;4216011;28;20116;-52
2024/02/22 02:41:42;;;;;;;44.65;42.03;;;;;;;;;;4216172;28;20429;-51
2024/02/22 02:43:44;;;;;;;42.17;39.67;;;;;;;;;;4215980;28;20039;-52
2024/02/22 02:45:45;;;;;;;43.90;41.07;;;;;;;;;;4215984;28;20499;-52
2024/02/22 02:47:48;;;;;;;43.00;40.33;;;;;;;;;;4215971;28;20289;-50
2024/02/22 02:49:50;;;;;;;43.75;41.05;;;;;;;;;;4197876;28;20369;-53
2024/02/22 02:51:51;;;;;;;46.27;43.17;;;;;;;;;;4197832;28;20036;-52
2024/02/22 02:53:53;;;;;;;44.67;42.35;;;;;;;;;;4215728;28;20041;-53
2024/02/22 02:55:57;;;;;;;42.60;40.33;;;;;;;;;;4215980;28;20111;-52
2024/02/22 02:58:00;;;;;;;43.78;40.85;;;;;;;;;;4215599;28;20043;-52
2024/02/22 03:00:02;;;;;;;43.95;41.47;;;;;;;;;;4215799;28;20047;-52
2024/02/22 03:02:04;;;;;;;40.58;38.05;;;;;;;;;;4215510;28;20065;-52
2024/02/22 03:04:06;;;;;;;45.10;42.53;;;;;;;;;;4215365;28;20060;-52
2024/02/22 03:06:07;;;;;;;48.10;44.67;;;;;;;;;;4197453;28;20044;-51
2024/02/22 03:08:09;;;;;;;48.30;45.55;;;;;;;;;;4215492;28;20086;-53
2024/02/22 03:10:11;;;;;;;45.33;42.92;;;;;;;;;;4197664;28;20044;-51
2024/02/22 03:12:13;;;;;;;39.50;37.10;;;;;;;;;;4172319;28;20072;-51
2024/02/22 03:14:15;;;;;;;46.05;43.47;;;;;;;;;;4164384;28;20045;-51
2024/02/22 03:16:17;;;;;;;44.60;41.75;;;;;;;;;;4182166;28;20068;-52
2024/02/22 03:18:18;;;;;;;41.95;39.55;;;;;;;;;;4182042;28;20413;-52
2024/02/22 03:20:20;;;;;;;47.78;45.13;;;;;;;;;;4182132;28;20120;-53
2024/02/22 03:22:23;;;;;;;43.83;41.43;;;;;;;;;;4182116;28;20091;-49
2024/02/22 03:24:26;;;;;;;;;;;;;;;;;;4156222;28;20383;-51
2024/02/22 03:26:27;;;;;;;47.35;44.47;;;;;;;;;;4181848;28;19921;-51
2024/02/22 03:28:29;;;;;;;42.38;40.13;;;;;;;;;;4182058;28;20052;-51
2024/02/22 03:30:33;;;;;;;42.63;40.42;;;;;;;;;;4180523;28;20369;-52
2024/02/22 03:32:36;;;;;;;43.75;40.90;;;;;;;;;;4181907;28;20041;-52
2024/02/22 03:34:38;;;;;;;45.55;43.10;;;;;;;;;;4181701;28;20049;-49
2024/02/22 03:36:41;;;;;;;46.27;43.50;;;;;;;;;;4181954;28;20039;-51
2024/02/22 03:38:43;;;;;;;42.03;39.92;;;;;;;;;;4181616;28;20488;-52
2024/02/22 03:40:45;;;;;;;41.78;39.30;;;;;;;;;;4181793;28;20040;-51
2024/02/22 03:42:47;;;;;;;43.53;41.20;;;;;;;;;;4181633;28;20052;-52
2024/02/22 03:44:49;;;;;;;43.17;40.53;;;;;;;;;;4181438;28;20435;-49
2024/02/22 03:46:51;;;;;;;43.95;41.47;;;;;;;;;;4164015;28;20049;-53
2024/02/22 03:48:54;;;;;;;46.95;43.92;;;;;;;;;;4181350;28;20052;-52
2024/02/22 03:50:55;;;;;;;43.92;41.53;;;;;;;;;;4181650;28;20033;-52
2024/02/22 03:52:57;;;;;;;46.33;43.70;;;;;;;;;;4181475;28;20071;-53
2024/02/22 03:54:59;;;;;;;44.43;41.83;;;;;;;;;;4181794;28;20037;-50
2024/02/22 03:57:00;;;;;;;47.65;44.50;;;;;;;;;;4211341;28;20338;-52
2024/02/22 03:59:03;;;;;;;49.85;46.45;;;;;;;;;;4214978;28;20051;-52
2024/02/22 04:01:05;;;;;;;45.55;42.78;;;;;;;;;;4214791;28;20127;-51
2024/02/22 04:03:06;;;;;;;45.28;42.67;;;;;;;;;;4214117;28;20826;-51
2024/02/22 04:05:08;;;;;;;47.72;44.83;;;;;;;;;;4214770;28;20458;-50
2024/02/22 04:07:10;;;;;;;46.73;43.43;;;;;;;;;;4214839;28;20089;-51
2024/02/22 04:09:11;;;;;;;44.63;41.80;;;;;;;;;;4185537;28;20088;-49
2024/02/22 04:11:13;;;;;;;45.88;43.28;;;;;;;;;;4181419;28;20037;-51
2024/02/22 04:13:15;;;;;;;44.25;41.85;;;;;;;;;;4181197;28;20484;-49
2024/02/22 04:15:17;;;;;;;42.30;39.92;;;;;;;;;;4163558;28;20041;-52
2024/02/22 04:17:19;;;;;;;45.15;42.50;;;;;;;;;;4180632;28;20033;-52
2024/02/22 04:19:20;;;;;;;46.03;43.22;;;;;;;;;;4181153;28;20039;-53
2024/02/22 04:21:22;;;;;;;44.53;41.72;;;;;;;;;;4181099;28;20120;-51
2024/02/22 04:23:24;;;;;;;45.50;42.72;;;;;;;;;;4181261;28;20040;-52
2024/02/22 04:25:25;;;;;;;42.78;40.65;;;;;;;;;;4181267;28;20048;-51
2024/02/22 04:27:27;;;;;;;45.95;42.95;;;;;;;;;;4181457;28;20095;-51
2024/02/22 04:29:28;;;;;;;42.95;40.47;;;;;;;;;;4180833;28;20095;-49
2024/02/22 04:31:30;;;;;;;44.92;42.33;;;;;;;;;;4181238;28;20037;-52
2024/02/22 04:33:35;;;;;;;42.90;40.30;;;;;;;;;;4163362;28;20487;-52
2024/02/22 04:35:37;;;;;;;47.47;44.75;;;;;;;;;;4180833;28;20087;-52
2024/02/22 04:37:41;;;;;;;42.80;39.90;;;;;;;;;;4180982;28;20040;-52
2024/02/22 04:39:43;;;;;;;44.97;41.92;;;;;;;;;;4181006;28;20407;-52
2024/02/22 04:41:45;;;;;;;45.03;42.17;;;;;;;;;;4180828;28;20029;-52
2024/02/22 04:43:46;;;;;;;46.35;43.38;;;;;;;;;;4163290;28;20041;-50
2024/02/22 04:45:48;;;;;;;43.92;41.17;;;;;;;;;;4180606;28;20112;-51
2024/02/22 04:47:50;;;;;;;46.90;43.83;;;;;;;;;;4183948;28;20033;-50
2024/02/22 04:49:52;;;;;;;43.22;40.67;;;;;;;;;;4180841;28;20492;-48
2024/02/22 04:51:54;;;;;;;45.00;42.00;;;;;;;;;;4180298;28;20079;-49
2024/02/22 04:53:56;;;;;;;45.87;43.10;;;;;;;;;;4180580;28;20358;-51
2024/02/22 04:55:57;;;;;;;42.77;40.23;;;;;;;;;;4180720;28;20056;-50
2024/02/22 04:58:05;;;;;;;46.15;43.45;;;;;;;;;;4180580;28;20034;-48
2024/02/22 05:00:08;;;;;;;48.45;45.55;;;;;;;;;;4160808;28;20156;-51
2024/02/22 05:02:10;;;;;;;46.10;43.72;;;;;;;;;;4179252;28;20554;-52
2024/02/22 05:04:12;;;;;;;42.53;40.22;;;;;;;;;;4192453;28;20053;-51
2024/02/22 05:06:14;;;;;;;46.40;43.63;;;;;;;;;;4180548;28;20453;-52
2024/02/22 05:08:16;;;;;;;48.38;45.40;;;;;;;;;;4180725;28;20045;-49
2024/02/22 05:10:17;;;;;;;46.50;43.45;;;;;;;;;;4180145;28;20041;-50
2024/02/22 05:12:19;;;;;;;43.65;40.88;;;;;;;;;;4180555;28;20120;-53
2024/02/22 05:14:20;;;;;;;48.72;45.95;;;;;;;;;;4180580;28;20041;-51
2024/02/22 05:16:22;;;;;;;46.15;43.70;;;;;;;;;;4164973;28;20121;-53
2024/02/22 05:18:24;;;;;;;45.85;43.30;;;;;;;;;;4180362;28;20044;-51
2024/02/22 05:20:26;;;;;;;49.37;46.13;;;;;;;;;;4180405;28;20045;-51
2024/02/22 05:22:27;;;;;;;47.85;44.25;;;;;;;;;;4180809;28;20170;-51
2024/02/22 05:24:30;;;;;;;44.33;41.92;;;;;;;;;;4180323;28;20099;-51
2024/02/22 05:26:31;;;;;;;45.13;42.65;;;;;;;;;;4180373;28;20095;-53
2024/02/22 05:28:33;;;;;;;44.70;42.05;;;;;;;;;;4180484;28;20074;-51
2024/02/22 05:30:35;;;;;;;45.95;43.42;;;;;;;;;;4183329;28;20029;-50
2024/02/22 05:32:36;;;;;;;45.95;43.35;;;;;;;;;;4182852;28;20041;-49
2024/02/22 05:34:38;;;;;;;45.50;43.03;;;;;;;;;;4183336;28;20052;-51
2024/02/22 05:36:40;;;;;;;48.00;45.35;;;;;;;;;;4183822;28;20755;-51
2024/02/22 05:38:42;;;;;;;46.07;43.47;;;;;;;;;;4183574;28;20102;-52
2024/02/22 05:40:43;;;;;;;43.45;41.15;;;;;;;;;;4183221;28;20067;-52
2024/02/22 05:42:46;;;;;;;46.13;43.60;;;;;;;;;;4175937;28;20493;-52
2024/02/22 05:44:47;;;;;;;45.15;42.35;;;;;;;;;;4191258;28;20279;-52
2024/02/22 05:46:49;;;;;;;47.42;44.95;;;;;;;;;;4194702;28;20083;-49
2024/02/22 05:48:51;;;;;;;44.67;42.30;;;;;;;;;;4165698;28;20155;-51
2024/02/22 05:50:54;;;;;;;49.20;46.50;;;;;;;;;;4183390;28;20299;-50
2024/02/22 05:52:56;;;;;;;48.90;45.75;;;;;;;;;;4183562;28;20040;-50
2024/02/22 05:54:57;;;;;;;47.08;44.40;;;;;;;;;;4183113;28;20033;-50
2024/02/22 05:57:01;;;;;;;43.55;40.65;;;;;;;;;;4183094;28;20048;-48
2024/02/22 05:59:03;;;;;;;43.97;41.38;;;;;;;;;;4183124;28;20460;-52
2024/02/22 06:01:05;;;;;;;44.33;41.67;;;;;;;;;;4183666;28;20496;-53
2024/02/22 06:03:08;;;;;;;;;;;;;;;;;;4183114;28;20063;-52
2024/02/22 06:05:13;;;;;;;48.25;45.25;;;;;;;;;;4193149;28;19920;-50
2024/02/22 06:07:15;;;;;;;49.10;45.80;;;;;;;;;;4199211;28;20453;-51
2024/02/22 06:09:18;;;;;;;47.33;44.30;;;;;;;;;;4198084;28;20074;-49
2024/02/22 06:11:20;;;;;;;42.67;39.90;;;;;;;;;;4181309;28;20041;-50
2024/02/22 06:13:22;;;;;;;48.17;44.88;;;;;;;;;;4198501;28;20090;-52
2024/02/22 06:15:23;;;;;;;48.97;46.28;;;;;;;;;;4197058;28;20086;-53
2024/02/22 06:17:25;;;;;;;50.58;47.58;;;;;;;;;;4189469;28;20044;-52
2024/02/22 06:19:27;;;;;;;47.20;44.38;;;;;;;;;;4182854;28;20485;-64
2024/02/22 06:21:29;;;;;;;45.28;42.60;;;;;;;;;;4182483;28;20435;-64
2024/02/22 06:23:30;;;;;;;44.13;41.42;;;;;;;;;;4181883;28;20099;-65
2024/02/22 06:25:32;;;;;;;48.38;45.17;;;;;;;;;;4165074;28;20053;-64
2024/02/22 06:27:34;;;;;;;50.58;47.40;;;;;;;;;;4165446;28;20072;-65
2024/02/22 06:29:35;;;;;;;48.20;44.83;;;;;;;;;;4168498;28;20116;-63
2024/02/22 06:31:37;;;;;;;47.72;44.60;;;;;;;;;;4191758;28;20090;-63
2024/02/22 06:33:39;;;;;;;42.33;39.93;;;;;;;;;;4180410;28;20041;-64
2024/02/22 06:35:41;;;;;;;48.58;45.58;;;;;;;;;;4199140;28;20392;-65
2024/02/22 06:37:46;;;;;;;52.70;48.75;;;;;;;;;;4198879;28;20033;-65
2024/02/22 06:39:48;;;;;;;50.63;46.72;;;;;;;;;;4198411;28;20040;-65
2024/02/22 06:41:49;;;;;;;51.53;47.20;;;;;;;;;;4199174;28;20040;-63
2024/02/22 06:43:51;;;;;;;57.67;51.88;;;;;;;;;;4199016;28;20041;-64
2024/02/22 06:45:53;;;;;;;60.28;54.42;;;;;;;;;;4181149;28;20049;-65
2024/02/22 06:47:54;;;;;;;62.33;56.05;;;;;;;;;;4198930;28;20045;-57
2024/02/22 06:49:57;;;;;;;45.53;42.17;;;;;;;;;;4197509;28;20055;-57
2024/02/22 06:51:58;;;;;;;46.58;43.47;;;;;;;;;;4198753;28;20135;-57
2024/02/22 06:54:00;;;;;;;49.53;46.03;;;;;;;;;;4181134;28;20087;-58
2024/02/22 06:56:02;;;;;;;48.75;45.38;;;;;;;;;;4198467;28;20040;-57
2024/02/22 06:58:04;;;;;;;44.85;41.30;;;;;;;;;;4196369;28;20078;-57
2024/02/22 07:00:09;;;;;;;45.35;42.35;;;;;;;;;;4210116;28;20037;-57
2024/02/22 07:02:12;;;;;;;46.35;43.33;;;;;;;;;;4198661;28;20119;-57
2024/02/22 07:04:13;;;;;;;46.25;43.65;;;;;;;;;;4198304;28;20130;-58
2024/02/22 07:06:15;;;;;;;44.65;41.75;;;;;;;;;;4198502;28;20055;-58
2024/02/22 07:08:17;;;;;;;45.43;42.90;;;;;;;;;;4180606;28;20140;-57
2024/02/22 07:10:21;;;;;;;45.95;43.00;;;;;;;;;;4198428;28;20041;-57
2024/02/22 07:12:23;;;;;;;49.85;46.72;;;;;;;;;;4180996;28;20041;-58
2024/02/22 07:14:26;;;;;;;;;;;;;;;;;;4198749;28;20415;-57
2024/02/22 07:16:27;;;;;;;47.10;44.33;;;;;;;;;;4198366;28;19925;-58
2024/02/22 07:18:29;;;;;;;43.37;40.53;;;;;;;;;;4176239;28;20037;-57
2024/02/22 07:20:31;;;;;;;41.23;38.93;;;;;;;;;;4181940;28;20037;-57
2024/02/22 07:22:33;;;;;;;44.10;41.53;;;;;;;;;;4181745;28;20638;-58
2024/02/22 07:24:35;;;;;;;44.40;41.47;;;;;;;;;;4181688;28;20037;-57
2024/02/22 07:26:36;;;;;;;40.20;38.03;;;;;;;;;;4181667;28;20032;-57
2024/02/22 07:28:39;;;;;;;42.33;39.90;;;;;;;;;;4181631;28;20040;-57
2024/02/22 07:30:41;;;;;;;40.75;38.13;;;;;;;;;;4181548;28;20064;-57
2024/02/22 07:32:43;;;;;;;;;;;;;;;;;;4164304;28;20046;-57
2024/02/22 07:34:45;;;;;;;49.78;46.28;;;;;;;;;;4163836;28;20376;-57
2024/02/22 07:36:46;;;;;;;43.47;40.80;;;;;;;;;;4181822;28;20056;-57
2024/02/22 07:38:48;;;;;;;44.40;41.70;;;;;;;;;;4181561;28;20334;-57
2024/02/22 07:40:50;;;;;;;43.67;40.50;;;;;;;;;;4181687;28;20048;-58
2024/02/22 07:42:52;;;;;;;38.85;36.83;;;;;;;;;;4163792;28;20065;-58
2024/02/22 07:44:53;;;;;;;44.60;41.67;;;;;;;;;;4181253;28;20585;-57
2024/02/22 07:46:55;;;;;;;47.17;44.33;;;;;;;;;;4181433;28;20037;-58
2024/02/22 07:48:58;;;;;;;51.13;47.28;;;;;;;;;;4181419;28;20111;-58
2024/02/22 07:50:59;;;;;;;43.33;40.22;;;;;;;;;;4181192;28;20037;-57
2024/02/22 07:53:01;;;;;;;41.92;39.72;;;;;;;;;;4172295;28;20044;-57
2024/02/22 07:55:04;;;;;;;41.85;39.33;;;;;;;;;;4214659;28;20046;-57
2024/02/22 07:57:06;;;;;;;43.55;41.00;;;;;;;;;;4194553;28;20049;-57
2024/02/22 07:59:10;;;;;;;43.35;40.78;;;;;;;;;;4181650;28;20043;-57
2024/02/22 08:01:11;;;;;;;39.05;36.58;;;;;;;;;;4163410;28;20079;-58
2024/02/22 08:03:13;;;;;;;46.20;42.53;;;;;;;;;;4163213;28;20049;-57
2024/02/22 08:05:17;;;;;;;46.50;43.30;;;;;;;;;;4163461;28;20050;-58
2024/02/22 08:07:19;;;;;;;45.47;42.22;;;;;;;;;;4181164;28;20044;-57
2024/02/22 08:09:22;;;;;;;44.38;41.75;;;;;;;;;;4180933;28;20496;-58
2024/02/22 08:11:26;;;;;;;37.03;34.92;;;;;;;;;;4181076;28;20120;-57
2024/02/22 08:13:28;;;;;;;42.78;40.22;;;;;;;;;;4181135;28;20048;-57
2024/02/22 08:15:30;;;;;;;42.20;39.58;;;;;;;;;;4181055;28;20094;-57
2024/02/22 08:17:33;;;;;;;40.35;37.70;;;;;;;;;;4181144;28;20124;-56
2024/02/22 08:19:35;;;;;;;42.00;39.22;;;;;;;;;;4180842;28;20068;-57
2024/02/22 08:21:36;;;;;;;44.40;41.33;;;;;;;;;;4181010;28;20064;-58
2024/02/22 08:23:38;;;;;;;42.20;39.42;;;;;;;;;;4180769;28;20045;-57
2024/02/22 08:25:40;;;;;;;41.70;38.85;;;;;;;;;;4162971;28;20041;-58
2024/02/22 08:27:41;;;;;;;38.83;36.63;;;;;;;;;;4163181;28;20046;-58
2024/02/22 08:29:54;;;;;;;39.97;37.92;;;;;;;;;;4180852;28;20780;-57
2024/02/22 08:31:56;;;;;;;36.65;34.30;;;;;;;;;;4180986;28;20071;-58
2024/02/22 08:33:58;;;;;;;38.70;36.17;;;;;;;;;;4180972;28;20393;-58
2024/02/22 08:36:00;;;;;;;35.83;34.17;;;;;;;;;;4180729;28;20033;-57
2024/02/22 08:38:01;;;;;;;38.10;36.20;;;;;;;;;;4180805;28;20044;-58
2024/02/22 08:40:03;;;;;;;40.27;37.73;;;;;;;;;;4180688;28;20468;-57
2024/02/22 08:42:25;;;;;;;37.22;34.78;;;;;;;;;;4180872;28;20045;-57
2024/02/22 08:44:28;;;;;;;36.03;34.25;;;;;;;;;;4146402;28;20054;-57
2024/02/22 08:46:30;;;;;;;36.92;35.03;;;;;;;;;;4180874;28;20041;-57
2024/02/22 08:48:35;;;;;;;36.30;34.30;;;;;;;;;;4180631;28;20056;-58
2024/02/22 08:50:37;;;;;;;37.38;35.47;;;;;;;;;;4212609;28;20164;-58
2024/02/22 08:52:42;;;;;;;38.10;36.17;;;;;;;;;;4205192;28;20036;-58
2024/02/22 08:54:44;;;;;;;38.50;36.53;;;;;;;;;;4180804;28;20041;-57
2024/02/22 08:56:46;;;;;;;34.10;32.43;;;;;;;;;;4162733;28;20055;-57
2024/02/22 08:58:47;;;;;;;35.85;34.13;;;;;;;;;;4163168;28;20037;-58
2024/02/22 09:00:49;;;;;;;36.15;34.50;;;;;;;;;;4180572;28;20047;-57
2024/02/22 09:02:51;;;;;;;40.55;37.92;;;;;;;;;;4180234;28;20041;-57
2024/02/22 09:04:53;;;;;;;40.92;38.33;;;;;;;;;;4184200;28;20045;-57
2024/02/22 09:06:54;;;;;;;36.73;34.80;;;;;;;;;;4184129;28;20037;-57
2024/02/22 09:08:58;;;;;;;33.67;32.13;;;;;;;;;;4183738;28;20405;-57
2024/02/22 09:11:00;;;;;;;34.42;32.63;;;;;;;;;;4184013;28;20103;-57
2024/02/22 09:13:02;;;;;;;34.47;32.85;;;;;;;;;;4166292;28;20068;-57
2024/02/22 09:15:04;;;;;;;32.63;31.27;;;;;;;;;;4183737;28;20045;-57
2024/02/22 09:17:06;;;;;;;31.05;29.65;;;;;;;;;;4183623;28;20037;-57
2024/02/22 09:19:09;;;;;;;29.98;28.70;;;;;;;;;;4165825;28;20132;-58
2024/02/22 09:21:11;;;;;;;31.67;30.27;;;;;;;;;;4165885;28;20045;-57
2024/02/22 09:23:13;;;;;;;33.10;31.27;;;;;;;;;;4183565;28;20037;-58
2024/02/22 09:25:15;;;;;;;33.67;32.38;;;;;;;;;;4183386;28;20068;-58
2024/02/22 09:27:17;;;;;;;34.00;32.40;;;;;;;;;;4183452;28;20079;-57
2024/02/22 09:29:18;;;;;;;32.03;30.63;;;;;;;;;;4183741;28;20163;-57
2024/02/22 09:31:20;;;;;;;31.20;30.07;;;;;;;;;;4183686;28;20044;-57
2024/02/22 09:33:22;;;;;;;31.25;29.95;;;;;;;;;;4183463;28;20047;-58
2024/02/22 09:35:23;;;;;;;32.05;30.67;;;;;;;;;;4183362;28;20404;-58
2024/02/22 09:37:30;;;;;;;31.77;30.27;;;;;;;;;;4183570;28;20087;-57
2024/02/22 09:39:35;;;;;;;35.40;33.83;;;;;;;;;;4165677;28;20073;-58
2024/02/22 09:41:37;;;;;;;29.52;28.08;;;;;;;;;;4165990;28;20051;-58
2024/02/22 09:43:38;;;;;;;31.58;30.38;;;;;;;;;;4183361;28;20427;-58
2024/02/22 09:45:41;;;;;;;34.67;33.13;;;;;;;;;;4195326;28;20430;-58
2024/02/22 09:47:44;;;;;;;33.38;32.00;;;;;;;;;;4198644;28;20044;-58
2024/02/22 09:49:46;;;;;;;33.22;31.83;;;;;;;;;;4193771;28;20045;-57
2024/02/22 09:51:51;;;;;;;32.15;30.55;;;;;;;;;;4183084;28;20033;-58
2024/02/22 09:53:53;;;;;;;31.63;30.10;;;;;;;;;;4183455;28;20041;-58
2024/02/22 09:55:55;;;;;;;29.38;28.20;;;;;;;;;;4183417;28;20045;-57
2024/02/22 09:57:57;;;;;;;31.40;30.15;;;;;;;;;;4183185;28;20041;-58
2024/02/22 09:59:59;;;;;;;31.65;30.13;;;;;;;;;;4165291;28;20049;-58
2024/02/22 10:02:05;;;;;;;;;;;;;;;;;;4183657;28;20069;-57
2024/02/22 10:04:11;;;;;;;29.35;28.05;;;;;;;;;;4182675;28;19921;-58
2024/02/22 10:06:18;;;;;;;32.67;31.13;;;;;;;;;;4183066;28;20437;-58
2024/02/22 10:08:22;;;;;;;32.67;31.35;;;;;;;;;;4182717;28;20488;-58
2024/02/22 10:10:25;;;;;;;33.10;31.45;;;;;;;;;;4182835;28;20099;-58
2024/02/22 10:12:28;;;;;;;30.40;29.00;;;;;;;;;;4165029;28;20045;-58
2024/02/22 10:14:34;;;;;;;28.88;27.90;;;;;;;;;;4164723;28;20074;-58
2024/02/22 10:16:37;;;;;;;30.70;29.52;;;;;;;;;;4182718;28;20037;-58
2024/02/22 10:18:41;;;;;;;30.90;29.85;;;;;;;;;;4165634;28;20061;-57
2024/02/22 10:20:43;;;;;;;31.35;30.00;;;;;;;;;;4182932;28;20041;-62
2024/02/22 10:22:48;;;;;;;30.80;29.88;;;;;;;;;;4182852;28;20147;-63
2024/02/22 10:24:50;;;;;;;30.33;29.35;;;;;;;;;;4182531;28;20102;-63
2024/02/22 10:27:00;;;;;;;30.63;29.52;;;;;;;;;;4182550;28;20048;-63
2024/02/22 10:29:08;;;;;;;29.88;28.67;;;;;;;;;;4182600;28;20049;-63
2024/02/22 10:31:10;;;;;;;31.65;30.65;;;;;;;;;;4182875;28;20073;-63
2024/02/22 10:33:11;;;;;;;29.75;28.85;;;;;;;;;;4182448;28;20041;-63
2024/02/22 10:35:14;;;;;;;31.33;30.13;;;;;;;;;;4182476;28;20033;-63
2024/02/22 10:37:17;;;;;;;30.75;29.73;;;;;;;;;;4182446;28;20037;-63
2024/02/22 10:39:20;;;;;;;27.40;26.45;;;;;;;;;;4182707;28;20116;-63
2024/02/22 10:41:21;;;;;;;;;;;;;;;;;;4185742;28;20098;-63
2024/02/22 10:43:23;;;;;;;27.77;26.75;;;;;;;;;;4215603;28;19920;-63
2024/02/22 10:45:25;;;;;;;28.95;27.77;;;;;;;;;;4202679;28;20501;-63
2024/02/22 10:47:28;;;;;;;28.27;27.00;;;;;;;;;;4187799;28;20098;-63
2024/02/22 10:49:31;;;;;;;33.72;31.90;;;;;;;;;;4187302;28;20037;-63
2024/02/22 10:51:34;;;;;;;35.72;33.88;;;;;;;;;;4185139;28;20044;-63
2024/02/22 10:53:36;;;;;;;;;;;;;;;;;;4191138;28;20044;-64
2024/02/22 10:55:39;;;;;;;27.10;26.20;;;;;;;;;;4191964;28;19928;-63
2024/02/22 10:57:46;;;;;;;27.23;26.33;;;;;;;;;;4194675;28;20036;-63
2024/02/22 10:59:49;;;;;;;27.25;26.25;;;;;;;;;;4190425;28;20047;-63
2024/02/22 11:01:51;;;;;;;28.35;27.35;;;;;;;;;;4198114;28;20039;-63
2024/02/22 11:03:54;;;;;;;26.80;25.90;;;;;;;;;;4189416;28;20045;-63
2024/02/22 11:06:03;;;;;;;26.60;25.63;;;;;;;;;;4184427;28;20496;-63
2024/02/22 11:08:05;;;;;;;28.08;26.98;;;;;;;;;;4183010;28;20045;-63
2024/02/22 11:10:10;;;;;;;25.90;25.15;;;;;;;;;;4184580;28;20037;-63
2024/02/22 11:12:14;;;;;;;26.95;25.90;;;;;;;;;;4175146;28;20080;-63
2024/02/22 11:14:26;;;;;;;27.98;27.08;;;;;;;;;;4189274;28;20049;-63
2024/02/22 11:16:34;;;;;;;28.98;28.05;;;;;;;;;;4186647;28;20048;-63
2024/02/22 11:18:36;;;;;;;30.67;29.30;;;;;;;;;;4185491;28;20540;-64
2024/02/22 11:20:38;;;;;;;28.63;27.57;;;;;;;;;;4186875;28;20033;-62
2024/02/22 11:22:39;;;;;;;30.80;29.52;;;;;;;;;;4197808;28;20395;-63
2024/02/22 11:24:42;;;;;;;31.10;29.90;;;;;;;;;;4184637;28;20105;-63
2024/02/22 11:26:43;;;;;;;29.75;28.60;;;;;;;;;;4183922;28;20357;-63
2024/02/22 11:28:50;;;;;;;28.50;27.57;;;;;;;;;;4188381;28;20107;-62
2024/02/22 11:30:52;;;;;;;29.92;28.80;;;;;;;;;;4193996;28;20131;-58
2024/02/22 11:32:54;;;;;;;26.17;25.47;;;;;;;;;;4186891;28;20056;-56
2024/02/22 11:34:57;;;;;;;26.75;25.73;;;;;;;;;;4198197;28;20442;-57
2024/02/22 11:37:09;;;;;;;29.63;28.08;;;;;;;;;;4194307;28;20049;-57
2024/02/22 11:39:11;;;;;;;27.02;25.20;;;;;;;;;;4203622;28;20040;-58
2024/02/22 11:41:15;;;;;;;26.05;25.15;;;;;;;;;;4182894;28;20066;-58
2024/02/22 11:43:23;;;;;;;28.60;26.80;;;;;;;;;;4185154;28;20127;-58
2024/02/22 11:45:25;;;;;;;27.52;26.38;;;;;;;;;;4181136;28;20041;-58
2024/02/22 11:47:27;;;;;;;30.73;29.17;;;;;;;;;;4181717;28;20098;-58
2024/02/22 11:49:29;;;;;;;28.13;27.23;;;;;;;;;;4188935;28;20291;-59
2024/02/22 11:51:31;;;;;;;28.42;27.25;;;;;;;;;;4167041;28;20123;-58
2024/02/22 11:53:33;;;;;;;25.70;24.55;;;;;;;;;;4195738;28;20040;-57
2024/02/22 11:55:35;;;;;;;32.78;30.67;;;;;;;;;;4171633;28;20041;-57